sensor_id;sensor_type;location;lat;lon;timestamp;pressure;altitude;pressure_sealevel;temperature;humidity
23229;BME280;11783;50.350;6.576;2023-02-28T00:00:43;97153.47;;;-0.17;76.00
23229;BME280;11783;50.350;6.576;2023-02-28T00:03:09;97155.72;;;-0.22;75.86
23229;BME280;11783;50.350;6.576;2023-02-28T00:05:34;97152.44;;;-0.24;77.00
23229;BME280;11783;50.350;6.576;2023-02-28T00:08:00;97153.25;;;-0.23;75.75
23229;BME280;11783;50.350;6.576;2023-02-28T00:10:28;97159.91;;;-0.29;76.34
23229;BME280;11783;50.350;6.576;2023-02-28T00:12:55;97155.00;;;-0.32;76.95
23229;BME280;11783;50.350;6.576;2023-02-28T00:15:22;97155.97;;;-0.33;77.50
23229;BME280;11783;50.350;6.576;2023-02-28T00:17:48;97163.34;;;-0.28;75.82
23229;BME280;11783;50.350;6.576;2023-02-28T00:20:13;97160.75;;;-0.28;75.87
23229;BME280;11783;50.350;6.576;2023-02-28T00:22:44;97152.69;;;-0.35;76.78
23229;BME280;11783;50.350;6.576;2023-02-28T00:25:12;97161.34;;;-0.35;77.40
23229;BME280;11783;50.350;6.576;2023-02-28T00:27:39;97148.16;;;-0.33;76.44
23229;BME280;11783;50.350;6.576;2023-02-28T00:30:08;97154.78;;;-0.39;77.12
23229;BME280;11783;50.350;6.576;2023-02-28T00:32:35;97150.53;;;-0.40;76.77
23229;BME280;11783;50.350;6.576;2023-02-28T00:35:00;97150.25;;;-0.37;76.79
23229;BME280;11783;50.350;6.576;2023-02-28T00:37:26;97152.16;;;-0.39;76.72
23229;BME280;11783;50.350;6.576;2023-02-28T00:39:51;97153.59;;;-0.44;76.78
23229;BME280;11783;50.350;6.576;2023-02-28T00:42:17;97154.25;;;-0.42;77.04
23229;BME280;11783;50.350;6.576;2023-02-28T00:44:42;97152.63;;;-0.43;76.88
23229;BME280;11783;50.350;6.576;2023-02-28T00:47:07;97158.63;;;-0.51;77.11
23229;BME280;11783;50.350;6.576;2023-02-28T00:49:33;97150.47;;;-0.48;77.10
23229;BME280;11783;50.350;6.576;2023-02-28T00:51:58;97148.31;;;-0.52;77.28
23229;BME280;11783;50.350;6.576;2023-02-28T00:54:24;97150.63;;;-0.49;77.81
23229;BME280;11783;50.350;6.576;2023-02-28T00:56:49;97153.53;;;-0.52;77.80
23229;BME280;11783;50.350;6.576;2023-02-28T00:59:16;97153.53;;;-0.52;77.67
23229;BME280;11783;50.350;6.576;2023-02-28T01:01:43;97149.66;;;-0.48;77.74
23229;BME280;11783;50.350;6.576;2023-02-28T01:04:09;97161.06;;;-0.49;77.66
23229;BME280;11783;50.350;6.576;2023-02-28T01:06:34;97161.00;;;-0.57;79.23
23229;BME280;11783;50.350;6.576;2023-02-28T01:08:59;97155.09;;;-0.59;79.17
23229;BME280;11783;50.350;6.576;2023-02-28T01:11:25;97159.34;;;-0.58;78.40
23229;BME280;11783;50.350;6.576;2023-02-28T01:13:51;97166.50;;;-0.61;78.25
23229;BME280;11783;50.350;6.576;2023-02-28T01:16:16;97159.34;;;-0.58;77.55
23229;BME280;11783;50.350;6.576;2023-02-28T01:18:42;97151.38;;;-0.57;77.15
23229;BME280;11783;50.350;6.576;2023-02-28T01:21:10;97157.34;;;-0.65;78.45
23229;BME280;11783;50.350;6.576;2023-02-28T01:23:36;97158.31;;;-0.66;79.25
23229;BME280;11783;50.350;6.576;2023-02-28T01:26:13;97163.53;;;-0.66;79.10
23229;BME280;11783;50.350;6.576;2023-02-28T01:28:40;97161.25;;;-0.69;78.42
23229;BME280;11783;50.350;6.576;2023-02-28T01:31:06;97157.00;;;-0.70;78.00
23229;BME280;11783;50.350;6.576;2023-02-28T01:33:32;97166.91;;;-0.73;79.89
23229;BME280;11783;50.350;6.576;2023-02-28T01:36:07;97161.16;;;-0.77;79.60
23229;BME280;11783;50.350;6.576;2023-02-28T01:38:34;97160.31;;;-0.77;78.88
23229;BME280;11783;50.350;6.576;2023-02-28T01:40:59;97157.19;;;-0.81;79.00
23229;BME280;11783;50.350;6.576;2023-02-28T01:43:32;97157.34;;;-0.82;79.83
23229;BME280;11783;50.350;6.576;2023-02-28T01:45:58;97156.84;;;-0.86;80.26
23229;BME280;11783;50.350;6.576;2023-02-28T01:48:27;97154.38;;;-0.87;79.26
23229;BME280;11783;50.350;6.576;2023-02-28T01:50:54;97157.44;;;-0.92;80.41
23229;BME280;11783;50.350;6.576;2023-02-28T01:53:28;97147.00;;;-0.92;80.53
23229;BME280;11783;50.350;6.576;2023-02-28T01:55:56;97154.69;;;-0.90;79.70
23229;BME280;11783;50.350;6.576;2023-02-28T01:58:22;97145.34;;;-0.93;80.60
23229;BME280;11783;50.350;6.576;2023-02-28T02:00:48;97149.72;;;-0.94;79.95
23229;BME280;11783;50.350;6.576;2023-02-28T02:03:16;97142.06;;;-0.95;79.50
23229;BME280;11783;50.350;6.576;2023-02-28T02:05:46;97142.97;;;-1.04;80.72
23229;BME280;11783;50.350;6.576;2023-02-28T02:08:24;97131.19;;;-1.08;80.36
23229;BME280;11783;50.350;6.576;2023-02-28T02:10:53;97133.41;;;-1.13;80.50
23229;BME280;11783;50.350;6.576;2023-02-28T02:13:37;97141.22;;;-1.13;80.90
23229;BME280;11783;50.350;6.576;2023-02-28T02:18:41;97134.66;;;-1.17;81.66
23229;BME280;11783;50.350;6.576;2023-02-28T02:27:01;97130.75;;;-1.31;82.59
23229;BME280;11783;50.350;6.576;2023-02-28T02:32:58;97131.31;;;-1.28;81.84
23229;BME280;11783;50.350;6.576;2023-02-28T02:35:24;97125.69;;;-1.33;82.12
23229;BME280;11783;50.350;6.576;2023-02-28T02:38:00;97129.72;;;-1.38;82.95
23229;BME280;11783;50.350;6.576;2023-02-28T02:40:34;97125.63;;;-1.41;83.15
23229;BME280;11783;50.350;6.576;2023-02-28T02:43:11;97126.97;;;-1.37;81.93
23229;BME280;11783;50.350;6.576;2023-02-28T02:45:46;97130.03;;;-1.41;82.70
23229;BME280;11783;50.350;6.576;2023-02-28T02:48:16;97133.75;;;-1.44;82.94
23229;BME280;11783;50.350;6.576;2023-02-28T02:50:45;97129.34;;;-1.43;82.66
23229;BME280;11783;50.350;6.576;2023-02-28T02:53:14;97126.88;;;-1.45;82.68
23229;BME280;11783;50.350;6.576;2023-02-28T02:55:44;97133.06;;;-1.46;82.39
23229;BME280;11783;50.350;6.576;2023-02-28T02:58:14;97125.41;;;-1.47;82.54
23229;BME280;11783;50.350;6.576;2023-02-28T03:00:46;97132.41;;;-1.48;83.29
23229;BME280;11783;50.350;6.576;2023-02-28T03:03:13;97123.19;;;-1.52;82.72
23229;BME280;11783;50.350;6.576;2023-02-28T03:05:46;97128.72;;;-1.55;82.80
23229;BME280;11783;50.350;6.576;2023-02-28T03:08:12;97127.59;;;-1.53;82.94
23229;BME280;11783;50.350;6.576;2023-02-28T03:10:41;97127.44;;;-1.51;82.37
23229;BME280;11783;50.350;6.576;2023-02-28T03:18:42;97120.53;;;-1.60;82.54
23229;BME280;11783;50.350;6.576;2023-02-28T03:21:21;97126.31;;;-1.66;82.81
23229;BME280;11783;50.350;6.576;2023-02-28T03:24:03;97120.84;;;-1.73;83.55
23229;BME280;11783;50.350;6.576;2023-02-28T03:26:31;97117.28;;;-1.72;83.32
23229;BME280;11783;50.350;6.576;2023-02-28T03:29:06;97118.53;;;-1.76;83.74
23229;BME280;11783;50.350;6.576;2023-02-28T03:31:48;97125.53;;;-1.76;84.44
23229;BME280;11783;50.350;6.576;2023-02-28T03:36:48;97121.97;;;-1.75;82.91
23229;BME280;11783;50.350;6.576;2023-02-28T03:39:27;97120.91;;;-1.83;83.89
23229;BME280;11783;50.350;6.576;2023-02-28T03:42:00;97122.41;;;-1.90;83.29
23229;BME280;11783;50.350;6.576;2023-02-28T03:44:38;97121.59;;;-1.90;83.31
23229;BME280;11783;50.350;6.576;2023-02-28T03:47:12;97114.91;;;-1.93;83.32
23229;BME280;11783;50.350;6.576;2023-02-28T03:49:47;97124.94;;;-1.98;83.69
23229;BME280;11783;50.350;6.576;2023-02-28T03:52:15;97125.78;;;-2.07;84.93
23229;BME280;11783;50.350;6.576;2023-02-28T03:54:55;97122.22;;;-2.06;85.07
23229;BME280;11783;50.350;6.576;2023-02-28T03:57:33;97120.31;;;-2.04;84.12
23229;BME280;11783;50.350;6.576;2023-02-28T04:00:35;97119.06;;;-2.09;84.31
23229;BME280;11783;50.350;6.576;2023-02-28T04:03:03;97118.63;;;-2.05;82.50
23229;BME280;11783;50.350;6.576;2023-02-28T04:05:29;97117.44;;;-2.10;83.78
23229;BME280;11783;50.350;6.576;2023-02-28T04:08:03;97118.16;;;-2.18;84.24
23229;BME280;11783;50.350;6.576;2023-02-28T04:10:29;97124.88;;;-2.25;84.86
23229;BME280;11783;50.350;6.576;2023-02-28T04:12:54;97125.16;;;-2.28;84.37
23229;BME280;11783;50.350;6.576;2023-02-28T04:15:19;97125.16;;;-2.28;84.78
23229;BME280;11783;50.350;6.576;2023-02-28T04:17:47;97128.44;;;-2.26;85.09
23229;BME280;11783;50.350;6.576;2023-02-28T04:20:13;97120.63;;;-2.26;85.12
23229;BME280;11783;50.350;6.576;2023-02-28T04:22:38;97132.69;;;-2.25;85.95
23229;BME280;11783;50.350;6.576;2023-02-28T04:25:05;97128.84;;;-2.21;84.71
23229;BME280;11783;50.350;6.576;2023-02-28T04:27:30;97126.94;;;-2.19;84.68
23229;BME280;11783;50.350;6.576;2023-02-28T04:29:56;97124.63;;;-2.22;84.66
23229;BME280;11783;50.350;6.576;2023-02-28T04:32:21;97121.88;;;-2.21;85.34
23229;BME280;11783;50.350;6.576;2023-02-28T04:34:46;97128.84;;;-2.21;84.90
23229;BME280;11783;50.350;6.576;2023-02-28T04:37:12;97120.78;;;-2.28;83.94
23229;BME280;11783;50.350;6.576;2023-02-28T04:39:37;97124.88;;;-2.25;84.05
23229;BME280;11783;50.350;6.576;2023-02-28T04:42:03;97125.69;;;-2.25;83.33
23229;BME280;11783;50.350;6.576;2023-02-28T04:44:28;97123.09;;;-2.25;83.37
23229;BME280;11783;50.350;6.576;2023-02-28T04:46:54;97125.59;;;-2.33;83.66
23229;BME280;11783;50.350;6.576;2023-02-28T04:49:19;97124.91;;;-2.35;83.74
23229;BME280;11783;50.350;6.576;2023-02-28T04:51:44;97124.38;;;-2.38;84.98
23229;BME280;11783;50.350;6.576;2023-02-28T04:54:10;97136.44;;;-2.37;85.65
23229;BME280;11783;50.350;6.576;2023-02-28T04:56:35;97133.16;;;-2.39;84.50
23229;BME280;11783;50.350;6.576;2023-02-28T04:59:01;97130.69;;;-2.41;84.16
23229;BME280;11783;50.350;6.576;2023-02-28T05:01:29;97141.22;;;-2.42;84.42
23229;BME280;11783;50.350;6.576;2023-02-28T05:03:56;97139.72;;;-2.45;85.19
23229;BME280;11783;50.350;6.576;2023-02-28T05:06:23;97137.53;;;-2.50;85.42
23229;BME280;11783;50.350;6.576;2023-02-28T05:08:49;97144.91;;;-2.45;84.25
23229;BME280;11783;50.350;6.576;2023-02-28T05:11:17;97142.59;;;-2.48;85.42
23229;BME280;11783;50.350;6.576;2023-02-28T05:13:42;97140.81;;;-2.48;84.69
23229;BME280;11783;50.350;6.576;2023-02-28T05:16:08;97143.28;;;-2.46;83.96
23229;BME280;11783;50.350;6.576;2023-02-28T05:18:33;97144.09;;;-2.46;84.94
23229;BME280;11783;50.350;6.576;2023-02-28T05:20:59;97144.25;;;-2.47;84.57
23229;BME280;11783;50.350;6.576;2023-02-28T05:23:27;97144.66;;;-2.52;84.25
23229;BME280;11783;50.350;6.576;2023-02-28T05:25:52;97139.47;;;-2.52;84.45
23229;BME280;11783;50.350;6.576;2023-02-28T05:28:19;97144.94;;;-2.55;84.18
23229;BME280;11783;50.350;6.576;2023-02-28T05:30:44;97140.03;;;-2.58;84.11
23229;BME280;11783;50.350;6.576;2023-02-28T05:33:11;97142.78;;;-2.59;84.09
23229;BME280;11783;50.350;6.576;2023-02-28T05:35:38;97147.00;;;-2.58;84.84
23229;BME280;11783;50.350;6.576;2023-02-28T05:38:04;97138.63;;;-2.62;84.34
23229;BME280;11783;50.350;6.576;2023-02-28T05:40:29;97138.63;;;-2.62;84.02
23229;BME280;11783;50.350;6.576;2023-02-28T05:42:54;97143.16;;;-2.64;84.40
23229;BME280;11783;50.350;6.576;2023-02-28T05:45:20;97141.13;;;-2.60;84.15
23229;BME280;11783;50.350;6.576;2023-02-28T05:47:45;97143.72;;;-2.60;84.25
23229;BME280;11783;50.350;6.576;2023-02-28T05:50:10;97150.00;;;-2.63;83.68
23229;BME280;11783;50.350;6.576;2023-02-28T05:52:36;97151.25;;;-2.67;83.79
23229;BME280;11783;50.350;6.576;2023-02-28T05:55:02;97145.09;;;-2.66;83.95
23229;BME280;11783;50.350;6.576;2023-02-28T05:57:28;97144.81;;;-2.63;83.14
23229;BME280;11783;50.350;6.576;2023-02-28T05:59:53;97144.69;;;-2.71;83.62
23229;BME280;11783;50.350;6.576;2023-02-28T06:02:19;97142.50;;;-2.76;83.37
23229;BME280;11783;50.350;6.576;2023-02-28T06:04:44;97143.47;;;-2.77;84.05
23229;BME280;11783;50.350;6.576;2023-02-28T06:07:10;97144.66;;;-2.81;83.70
23229;BME280;11783;50.350;6.576;2023-02-28T06:09:36;97147.41;;;-2.82;83.84
23229;BME280;11783;50.350;6.576;2023-02-28T06:12:04;97146.59;;;-2.83;84.31
23229;BME280;11783;50.350;6.576;2023-02-28T06:14:31;97142.88;;;-2.80;83.68
23229;BME280;11783;50.350;6.576;2023-02-28T06:16:58;97143.03;;;-2.82;84.42
23229;BME280;11783;50.350;6.576;2023-02-28T06:19:24;97146.88;;;-2.86;83.82
23229;BME280;11783;50.350;6.576;2023-02-28T06:21:51;97148.78;;;-2.88;83.90
23229;BME280;11783;50.350;6.576;2023-02-28T06:24:18;97150.56;;;-2.88;84.28
23229;BME280;11783;50.350;6.576;2023-02-28T06:26:43;97155.09;;;-2.90;84.73
23229;BME280;11783;50.350;6.576;2023-02-28T06:29:09;97161.13;;;-2.90;84.93
23229;BME280;11783;50.350;6.576;2023-02-28T06:31:34;97156.88;;;-2.91;85.49
23229;BME280;11783;50.350;6.576;2023-02-28T06:33:59;97154.00;;;-2.97;83.89
23229;BME280;11783;50.350;6.576;2023-02-28T06:36:25;97157.97;;;-2.93;84.38
23229;BME280;11783;50.350;6.576;2023-02-28T06:38:51;97155.50;;;-2.95;82.91
23229;BME280;11783;50.350;6.576;2023-02-28T06:41:22;97160.84;;;-2.96;83.35
23229;BME280;11783;50.350;6.576;2023-02-28T06:43:48;97164.13;;;-2.94;82.71
23229;BME280;11783;50.350;6.576;2023-02-28T06:46:14;97171.34;;;-2.98;nan
23229;BME280;11783;50.350;6.576;2023-02-28T06:48:40;97166.28;;;-2.99;82.92
23229;BME280;11783;50.350;6.576;2023-02-28T06:51:09;97173.28;;;-3.00;84.12
23229;BME280;11783;50.350;6.576;2023-02-28T06:53:36;97179.03;;;-3.06;83.08
23229;BME280;11783;50.350;6.576;2023-02-28T06:56:07;97178.91;;;-3.14;84.39
23229;BME280;11783;50.350;6.576;2023-02-28T06:58:33;97182.56;;;-3.17;84.52
23229;BME280;11783;50.350;6.576;2023-02-28T07:01:08;97193.66;;;-3.15;84.22
23229;BME280;11783;50.350;6.576;2023-02-28T07:03:40;97186.41;;;-3.11;85.05
23229;BME280;11783;50.350;6.576;2023-02-28T07:06:09;97197.50;;;-3.09;83.82
23229;BME280;11783;50.350;6.576;2023-02-28T07:08:35;97193.25;;;-3.10;83.55
23229;BME280;11783;50.350;6.576;2023-02-28T07:11:01;97193.41;;;-3.12;84.51
23229;BME280;11783;50.350;6.576;2023-02-28T07:13:27;97196.97;;;-3.13;83.83
23229;BME280;11783;50.350;6.576;2023-02-28T07:15:58;97193.53;;;-3.13;84.40
23229;BME280;11783;50.350;6.576;2023-02-28T07:18:25;97194.34;;;-3.13;84.29
23229;BME280;11783;50.350;6.576;2023-02-28T07:20:51;97192.56;;;-3.12;84.49
23229;BME280;11783;50.350;6.576;2023-02-28T07:23:17;97197.78;;;-3.12;84.15
23229;BME280;11783;50.350;6.576;2023-02-28T07:25:42;97191.88;;;-3.14;84.85
23229;BME280;11783;50.350;6.576;2023-02-28T07:28:09;97195.19;;;-3.12;83.58
23229;BME280;11783;50.350;6.576;2023-02-28T07:30:34;97192.03;;;-3.16;84.88
23229;BME280;11783;50.350;6.576;2023-02-28T07:32:59;97197.91;;;-3.14;84.83
23229;BME280;11783;50.350;6.576;2023-02-28T07:35:25;97208.56;;;-3.17;84.82
23229;BME280;11783;50.350;6.576;2023-02-28T07:37:50;97207.88;;;-3.19;84.90
23229;BME280;11783;50.350;6.576;2023-02-28T07:40:16;97200.06;;;-3.19;84.91
23229;BME280;11783;50.350;6.576;2023-02-28T07:42:43;97210.91;;;-3.14;84.35
23229;BME280;11783;50.350;6.576;2023-02-28T07:45:10;97204.91;;;-3.14;85.10
23229;BME280;11783;50.350;6.576;2023-02-28T07:47:37;97210.47;;;-3.19;85.58
23229;BME280;11783;50.350;6.576;2023-02-28T07:50:05;97207.63;;;-3.16;85.02
23229;BME280;11783;50.350;6.576;2023-02-28T07:52:30;97199.94;;;-3.17;85.10
23229;BME280;11783;50.350;6.576;2023-02-28T07:54:56;97198.06;;;-3.15;84.83
23229;BME280;11783;50.350;6.576;2023-02-28T07:57:21;97192.03;;;-3.16;85.84
23229;BME280;11783;50.350;6.576;2023-02-28T07:59:47;97193.66;;;-3.15;86.10
23229;BME280;11783;50.350;6.576;2023-02-28T08:02:14;97191.19;;;-3.16;86.84
23229;BME280;11783;50.350;6.576;2023-02-28T08:04:40;97188.59;;;-3.07;85.96
23229;BME280;11783;50.350;6.576;2023-02-28T08:07:06;97195.72;;;-2.99;86.79
23229;BME280;11783;50.350;6.576;2023-02-28T08:09:31;97195.88;;;-2.91;85.61
23229;BME280;11783;50.350;6.576;2023-02-28T08:11:57;97195.34;;;-2.85;85.65
23229;BME280;11783;50.350;6.576;2023-02-28T08:14:23;97190.53;;;-2.80;85.35
23229;BME280;11783;50.350;6.576;2023-02-28T08:16:48;97191.25;;;-2.78;85.87
23229;BME280;11783;50.350;6.576;2023-02-28T08:19:13;97193.72;;;-2.76;85.46
23229;BME280;11783;50.350;6.576;2023-02-28T08:21:39;97193.69;;;-2.66;85.17
23229;BME280;11783;50.350;6.576;2023-02-28T08:24:05;97196.59;;;-2.60;84.61
23229;BME280;11783;50.350;6.576;2023-02-28T08:26:30;97192.34;;;-2.41;84.94
23229;BME280;11783;50.350;6.576;2023-02-28T08:28:56;97198.44;;;-2.23;83.31
23229;BME280;11783;50.350;6.576;2023-02-28T08:31:21;97192.94;;;-2.01;82.73
23229;BME280;11783;50.350;6.576;2023-02-28T08:33:48;97195.50;;;-1.81;82.45
23229;BME280;11783;50.350;6.576;2023-02-28T08:36:16;97184.66;;;-1.49;81.75
23229;BME280;11783;50.350;6.576;2023-02-28T08:38:41;97183.25;;;-1.16;80.34
23229;BME280;11783;50.350;6.576;2023-02-28T08:41:10;97185.19;;;-0.91;79.32
23229;BME280;11783;50.350;6.576;2023-02-28T08:43:35;97181.31;;;-0.69;77.79
23229;BME280;11783;50.350;6.576;2023-02-28T08:46:01;97184.50;;;-0.57;76.51
23229;BME280;11783;50.350;6.576;2023-02-28T08:48:29;97187.09;;;-0.40;73.57
23229;BME280;11783;50.350;6.576;2023-02-28T08:51:09;97189.53;;;-0.38;74.19
23229;BME280;11783;50.350;6.576;2023-02-28T08:53:36;97186.75;;;-0.19;73.71
23229;BME280;11783;50.350;6.576;2023-02-28T08:56:07;97185.44;;;-0.23;74.17
23229;BME280;11783;50.350;6.576;2023-02-28T08:58:34;97193.66;;;-0.18;72.64
23229;BME280;11783;50.350;6.576;2023-02-28T09:01:00;97199.16;;;-0.21;73.34
23229;BME280;11783;50.350;6.576;2023-02-28T09:03:31;97193.50;;;-0.16;72.35
23229;BME280;11783;50.350;6.576;2023-02-28T09:05:59;97194.31;;;-0.16;70.22
23229;BME280;11783;50.350;6.576;2023-02-28T09:08:26;97192.53;;;0.11;71.51
23229;BME280;11783;50.350;6.576;2023-02-28T09:10:52;97197.38;;;0.32;70.58
23229;BME280;11783;50.350;6.576;2023-02-28T09:13:19;97190.91;;;0.44;68.18
23229;BME280;11783;50.350;6.576;2023-02-28T09:15:45;97189.38;;;0.33;68.70
23229;BME280;11783;50.350;6.576;2023-02-28T09:18:10;97195.41;;;0.25;67.29
23229;BME280;11783;50.350;6.576;2023-02-28T09:20:40;97202.66;;;0.14;66.01
23229;BME280;11783;50.350;6.576;2023-02-28T09:23:06;97198.97;;;-0.02;69.32
23229;BME280;11783;50.350;6.576;2023-02-28T09:25:32;97200.50;;;-0.17;66.72
23229;BME280;11783;50.350;6.576;2023-02-28T09:27:57;97193.69;;;-0.10;68.98
23229;BME280;11783;50.350;6.576;2023-02-28T09:30:23;97200.41;;;-0.07;67.49
23229;BME280;11783;50.350;6.576;2023-02-28T09:32:48;97192.16;;;0.06;66.11
23229;BME280;11783;50.350;6.576;2023-02-28T09:35:24;97194.66;;;0.15;64.18
23229;BME280;11783;50.350;6.576;2023-02-28T09:37:52;97201.03;;;0.13;67.24
23229;BME280;11783;50.350;6.576;2023-02-28T09:40:19;97201.03;;;0.13;64.75
23229;BME280;11783;50.350;6.576;2023-02-28T09:42:47;97192.22;;;0.14;65.14
23229;BME280;11783;50.350;6.576;2023-02-28T09:45:42;97200.22;;;0.12;63.41
23229;BME280;11783;50.350;6.576;2023-02-28T09:48:18;97201.38;;;0.18;63.90
23229;BME280;11783;50.350;6.576;2023-02-28T09:50:48;97187.63;;;0.16;64.92
23229;BME280;11783;50.350;6.576;2023-02-28T09:53:31;97195.03;;;0.20;61.77
23229;BME280;11783;50.350;6.576;2023-02-28T09:56:02;97195.19;;;0.19;62.37
23229;BME280;11783;50.350;6.576;2023-02-28T09:58:48;97185.44;;;0.29;61.94
23229;BME280;11783;50.350;6.576;2023-02-28T10:01:23;97184.88;;;0.43;62.21
23229;BME280;11783;50.350;6.576;2023-02-28T10:03:58;97183.06;;;0.44;63.46
23229;BME280;11783;50.350;6.576;2023-02-28T10:06:30;97184.38;;;0.48;62.42
23229;BME280;11783;50.350;6.576;2023-02-28T10:09:10;97189.19;;;0.60;64.87
23229;BME280;11783;50.350;6.576;2023-02-28T10:11:39;97185.63;;;0.70;62.12
23229;BME280;11783;50.350;6.576;2023-02-28T10:14:18;97180.75;;;0.75;59.48
23229;BME280;11783;50.350;6.576;2023-02-28T10:16:52;97190.75;;;0.79;61.95
23229;BME280;11783;50.350;6.576;2023-02-28T10:19:38;97178.81;;;0.85;58.70
23229;BME280;11783;50.350;6.576;2023-02-28T10:22:15;97182.56;;;0.82;59.99
23229;BME280;11783;50.350;6.576;2023-02-28T10:24:44;97190.16;;;0.94;60.47
23229;BME280;11783;50.350;6.576;2023-02-28T10:27:25;97185.56;;;0.96;59.47
23229;BME280;11783;50.350;6.576;2023-02-28T10:29:53;97181.97;;;1.05;59.50
23229;BME280;11783;50.350;6.576;2023-02-28T10:37:40;97193.31;;;1.21;57.76
23229;BME280;11783;50.350;6.576;2023-02-28T10:40:07;97189.38;;;1.17;59.75
23229;BME280;11783;50.350;6.576;2023-02-28T10:43:05;97184.97;;;1.26;57.75
23229;BME280;11783;50.350;6.576;2023-02-28T10:45:33;97185.63;;;1.20;57.97
23229;BME280;11783;50.350;6.576;2023-02-28T10:53:30;97186.47;;;1.37;57.26
23229;BME280;11783;50.350;6.576;2023-02-28T11:01:45;97183.19;;;1.43;57.62
23229;BME280;11783;50.350;6.576;2023-02-28T11:07:03;97174.03;;;1.47;57.78
23229;BME280;11783;50.350;6.576;2023-02-28T11:09:34;97176.81;;;1.54;58.54
23229;BME280;11783;50.350;6.576;2023-02-28T11:12:00;97173.38;;;1.53;57.67
23229;BME280;11783;50.350;6.576;2023-02-28T11:14:33;97174.84;;;1.56;57.22
23229;BME280;11783;50.350;6.576;2023-02-28T11:17:24;97180.25;;;1.62;57.45
23229;BME280;11783;50.350;6.576;2023-02-28T11:19:53;97175.19;;;1.69;57.13
23229;BME280;11783;50.350;6.576;2023-02-28T11:22:28;97170.59;;;1.79;58.37
23229;BME280;11783;50.350;6.576;2023-02-28T11:24:57;97172.91;;;1.74;57.92
23229;BME280;11783;50.350;6.576;2023-02-28T11:29:55;97163.09;;;1.68;56.41
23229;BME280;11783;50.350;6.576;2023-02-28T11:32:22;97165.53;;;1.61;56.06
23229;BME280;11783;50.350;6.576;2023-02-28T11:37:30;97165.38;;;1.55;56.43
23229;BME280;11783;50.350;6.576;2023-02-28T11:39:56;97159.81;;;1.49;59.15
23229;BME280;11783;50.350;6.576;2023-02-28T11:47:29;97160.78;;;1.57;56.79
23229;BME280;11783;50.350;6.576;2023-02-28T11:50:04;97169.78;;;1.62;58.06
23229;BME280;11783;50.350;6.576;2023-02-28T11:52:50;97160.28;;;1.77;56.27
23229;BME280;11783;50.350;6.576;2023-02-28T11:55:26;97151.44;;;1.87;53.67
23229;BME280;11783;50.350;6.576;2023-02-28T11:58:09;97151.28;;;1.88;57.93
23229;BME280;11783;50.350;6.576;2023-02-28T12:00:44;97158.81;;;1.91;55.44
23229;BME280;11783;50.350;6.576;2023-02-28T12:03:24;97156.66;;;1.95;54.97
23229;BME280;11783;50.350;6.576;2023-02-28T12:06:01;97152.53;;;2.00;55.36
23229;BME280;11783;50.350;6.576;2023-02-28T12:11:32;97139.91;;;2.12;56.69
23229;BME280;11783;50.350;6.576;2023-02-28T12:21:51;97138.03;;;2.37;54.76
23229;BME280;11783;50.350;6.576;2023-02-28T12:24:45;97128.34;;;2.37;53.92
23229;BME280;11783;50.350;6.576;2023-02-28T12:30:59;97143.44;;;2.83;50.50
23229;BME280;11783;50.350;6.576;2023-02-28T12:33:36;97145.53;;;2.87;53.56
23229;BME280;11783;50.350;6.576;2023-02-28T12:36:09;97140.81;;;2.83;53.86
23229;BME280;11783;50.350;6.576;2023-02-28T12:38:47;97128.16;;;2.86;51.38
23229;BME280;11783;50.350;6.576;2023-02-28T12:41:17;97132.41;;;2.87;49.53
23229;BME280;11783;50.350;6.576;2023-02-28T12:44:00;97129.41;;;2.98;50.37
23229;BME280;11783;50.350;6.576;2023-02-28T12:46:33;97115.38;;;2.83;50.73
23229;BME280;11783;50.350;6.576;2023-02-28T12:49:13;97120.53;;;2.68;53.05
23229;BME280;11783;50.350;6.576;2023-02-28T12:51:40;97116.78;;;2.63;51.51
23229;BME280;11783;50.350;6.576;2023-02-28T12:54:26;97117.53;;;2.80;52.02
23229;BME280;11783;50.350;6.576;2023-02-28T12:56:57;97111.41;;;2.87;53.66
23229;BME280;11783;50.350;6.576;2023-02-28T12:59:27;97112.84;;;2.98;52.56
23229;BME280;11783;50.350;6.576;2023-02-28T13:02:02;97110.25;;;3.13;52.55
23229;BME280;11783;50.350;6.576;2023-02-28T13:10:16;97105.72;;;3.67;50.72
23229;BME280;11783;50.350;6.576;2023-02-28T13:12:51;97100.84;;;3.79;50.83
23229;BME280;11783;50.350;6.576;2023-02-28T13:15:24;97107.97;;;3.93;47.95
23229;BME280;11783;50.350;6.576;2023-02-28T13:17:55;97110.75;;;4.06;46.68
23229;BME280;11783;50.350;6.576;2023-02-28T13:20:24;97106.25;;;4.15;49.04
23229;BME280;11783;50.350;6.576;2023-02-28T13:22:52;97098.53;;;4.43;49.31
23229;BME280;11783;50.350;6.576;2023-02-28T13:27:46;97090.97;;;5.05;44.07
23229;BME280;11783;50.350;6.576;2023-02-28T13:36:07;97103.97;;;5.28;45.22
23229;BME280;11783;50.350;6.576;2023-02-28T13:38:41;97097.34;;;5.39;45.31
23229;BME280;11783;50.350;6.576;2023-02-28T13:44:01;97094.56;;;5.40;43.22
23229;BME280;11783;50.350;6.576;2023-02-28T13:46:27;97076.88;;;5.62;44.54
23229;BME280;11783;50.350;6.576;2023-02-28T13:48:53;97092.53;;;5.42;44.32
23229;BME280;11783;50.350;6.576;2023-02-28T13:54:13;97091.91;;;5.62;45.49
23229;BME280;11783;50.350;6.576;2023-02-28T13:56:46;97083.00;;;5.91;46.54
23229;BME280;11783;50.350;6.576;2023-02-28T14:05:20;97084.34;;;6.49;41.09
23229;BME280;11783;50.350;6.576;2023-02-28T14:07:56;97082.41;;;6.23;42.89
23229;BME280;11783;50.350;6.576;2023-02-28T14:10:37;97082.78;;;6.20;42.82
23229;BME280;11783;50.350;6.576;2023-02-28T14:18:34;97089.09;;;6.60;44.42
23229;BME280;11783;50.350;6.576;2023-02-28T14:21:29;97083.81;;;6.67;42.29
23229;BME280;11783;50.350;6.576;2023-02-28T14:24:38;97078.13;;;6.63;43.15
23229;BME280;11783;50.350;6.576;2023-02-28T14:31:45;97078.44;;;6.95;43.03
23229;BME280;11783;50.350;6.576;2023-02-28T14:37:03;97075.97;;;6.87;41.94
23229;BME280;11783;50.350;6.576;2023-02-28T14:39:30;97064.56;;;6.80;44.82
23229;BME280;11783;50.350;6.576;2023-02-28T14:41:56;97067.03;;;6.88;40.23
23229;BME280;11783;50.350;6.576;2023-02-28T14:44:27;97071.94;;;6.97;42.04
23229;BME280;11783;50.350;6.576;2023-02-28T14:46:55;97072.19;;;7.09;42.94
23229;BME280;11783;50.350;6.576;2023-02-28T14:49:34;97067.34;;;7.39;39.25
23229;BME280;11783;50.350;6.576;2023-02-28T14:52:07;97065.31;;;7.48;41.83
23229;BME280;11783;50.350;6.576;2023-02-28T14:54:38;97064.50;;;7.67;39.92
23229;BME280;11783;50.350;6.576;2023-02-28T14:57:04;97063.88;;;7.58;41.16